Time;durP1;ratioP1;P1;durP2;ratioP2;P2;SDS_P1;SDS_P2;PMS_P1;PMS_P2;Temp;Humidity;BMP_temperature;BMP_pressure;BME280_temperature;BME280_humidity;BME280_pressure;Samples;Min_cycle;Max_cycle;Signal;HPM_P1;HPM_P2
2022/12/23 00:02:08;;;;;;;;;;;20.60;99.90;;;;;;5055616;28;19983;-73
2022/12/23 00:04:33;;;;;;;;;;;20.40;99.90;;;;;;5051694;28;19924;-72
2022/12/23 00:06:59;;;;;;;;;;;20.50;99.90;;;;;;5044960;28;19913;-72
2022/12/23 00:09:24;;;;;;;;;;;20.30;99.90;;;;;;5040998;28;20652;-72
2022/12/23 00:15:04;;;;;;;;;;;20.50;99.90;;;;;;5049380;28;19994;-74
2022/12/23 00:17:19;;;;;;;;;;;20.30;99.90;;;;;;5040066;28;19931;-73
2022/12/23 00:19:45;;;;;;;;;;;20.50;99.90;;;;;;5044340;28;19909;-72
2022/12/23 00:22:10;;;;;;;;;;;20.40;99.90;;;;;;5036716;28;20011;-73
2022/12/23 00:24:35;;;;;;;;;;;20.70;99.90;;;;;;5040284;28;19913;-74
2022/12/23 00:27:01;;;;;;;;;;;20.40;99.90;;;;;;5040809;28;19957;-72
2022/12/23 00:29:26;;;;;;;;;;;20.50;99.90;;;;;;5039513;28;19920;-72
2022/12/23 00:31:52;;;;;;;;;;;20.70;99.90;;;;;;5035836;28;19917;-74
2022/12/23 00:34:17;;;;;;;;;;;20.50;99.90;;;;;;5040293;28;19913;-69
2022/12/23 00:36:43;;;;;;;;;;;20.50;99.90;;;;;;5034234;28;19917;-72
2022/12/23 00:44:39;;;;;;;;;;;20.70;99.90;;;;;;5044760;28;19924;-73
2022/12/23 00:47:04;;;;;;;;;;;20.70;99.90;;;;;;5041891;28;19920;-74
2022/12/23 00:49:42;;;;;;;;;;;20.40;99.90;;;;;;5038619;28;19913;-71
2022/12/23 00:52:08;;;;;;;;;;;20.50;99.90;;;;;;5036594;28;20790;-73
2022/12/23 00:54:34;;;;;;;;;;;20.40;99.90;;;;;;5040136;28;19921;-73
2022/12/23 00:57:00;;;;;;;;;;;20.50;99.90;;;;;;5044319;28;19919;-72
2022/12/23 00:59:25;;;;;;;;;;;20.50;99.90;;;;;;5044724;28;19917;-73
2022/12/23 01:07:19;;;;;;;;;;;20.60;99.90;;;;;;5040953;28;19963;-73
2022/12/23 01:09:45;;;;;;;;;;;20.50;99.90;;;;;;5043387;28;19956;-72
2022/12/23 01:12:10;;;;;;;;;;;20.50;99.90;;;;;;5042703;28;19935;-73
2022/12/23 01:14:36;;;;;;;;;;;20.40;99.90;;;;;;5032650;28;19913;-74
2022/12/23 01:17:02;;;;;;;;;;;20.50;99.90;;;;;;5032988;28;19917;-72
2022/12/23 01:19:27;;;;;;;;;;;20.50;99.90;;;;;;5041818;28;19913;-73
2022/12/23 01:21:53;;;;;;;;;;;20.50;99.90;;;;;;5046446;28;19939;-73
2022/12/23 01:24:18;;;;;;;;;;;20.30;99.90;;;;;;5043243;28;19952;-74
2022/12/23 01:26:44;;;;;;;;;;;20.50;99.90;;;;;;5040719;28;19908;-73
2022/12/23 01:29:09;;;;;;;;;;;20.50;99.90;;;;;;5044984;28;19923;-74
2022/12/23 01:31:35;;;;;;;;;;;20.20;99.90;;;;;;5029349;28;19971;-75
2022/12/23 01:34:00;;;;;;;;;;;20.50;99.90;;;;;;5040106;28;19921;-73
2022/12/23 01:36:26;;;;;;;;;;;20.60;99.90;;;;;;5039326;28;19983;-74
2022/12/23 01:38:51;;;;;;;;;;;20.60;99.90;;;;;;5039197;28;20307;-74
2022/12/23 01:44:28;;;;;;;;;;;20.30;99.90;;;;;;5037377;28;19966;-74
2022/12/23 01:46:53;;;;;;;;;;;20.50;99.90;;;;;;5039498;28;19963;-75
2022/12/23 01:49:19;;;;;;;;;;;20.40;99.90;;;;;;5046758;28;19956;-74
2022/12/23 01:51:44;;;;;;;;;;;20.50;99.90;;;;;;5046145;28;19990;-75
2022/12/23 01:54:10;;;;;;;;;;;20.50;99.90;;;;;;5034367;28;19913;-74
2022/12/23 01:56:36;;;;;;;;;;;20.30;99.90;;;;;;5039298;28;19967;-74
2022/12/23 01:59:08;;;;;;;;;;;20.50;99.90;;;;;;5033631;28;19958;-72
2022/12/23 02:04:19;;;;;;;;;;;20.30;99.90;;;;;;5042197;28;19951;-73
2022/12/23 02:09:37;;;;;;;;;;;20.40;99.90;;;;;;5039361;28;19924;-73
2022/12/23 02:12:14;;;;;;;;;;;20.20;99.90;;;;;;5041079;28;19927;-72
2022/12/23 02:17:47;;;;;;;;;;;20.40;99.90;;;;;;5033185;28;19967;-75
2022/12/23 02:20:16;;;;;;;;;;;20.40;99.90;;;;;;5043632;28;19960;-73
2022/12/23 02:23:00;;;;;;;;;;;20.40;99.90;;;;;;5043338;28;19913;-75
2022/12/23 02:25:47;;;;;;;;;;;20.10;99.90;;;;;;5035932;28;20062;-74
2022/12/23 02:28:32;;;;;;;;;;;20.20;99.90;;;;;;5047084;28;19938;-74
2022/12/23 02:31:02;;;;;;;;;;;20.10;99.90;;;;;;5035320;28;20175;-75
2022/12/23 02:33:36;;;;;;;;;;;20.30;99.90;;;;;;5029031;28;19924;-74
2022/12/23 02:36:08;;;;;;;;;;;20.30;99.90;;;;;;5045432;28;19920;-75
2022/12/23 02:38:36;;;;;;;;;;;19.90;99.90;;;;;;5043850;28;19996;-74
2022/12/23 02:41:05;;;;;;;;;;;20.00;99.90;;;;;;5037025;28;20565;-74
2022/12/23 02:43:43;;;;;;;;;;;20.00;99.90;;;;;;5041935;28;19913;-74
2022/12/23 02:46:22;;;;;;;;;;;20.10;99.90;;;;;;5038798;28;19971;-73
2022/12/23 02:48:59;;;;;;;;;;;20.20;99.90;;;;;;5042874;28;19913;-74
2022/12/23 02:51:28;;;;;;;;;;;19.90;99.90;;;;;;5046657;28;19917;-74
2022/12/23 02:53:56;;;;;;;;;;;19.90;99.90;;;;;;5037248;28;19917;-73
2022/12/23 02:56:23;;;;;;;;;;;19.90;99.90;;;;;;5039508;28;20473;-74
2022/12/23 02:59:09;;;;;;;;;;;20.10;99.90;;;;;;5040193;28;20425;-76
2022/12/23 03:01:34;;;;;;;;;;;19.90;99.90;;;;;;5032763;28;19913;-74
2022/12/23 03:04:00;;;;;;;;;;;19.90;99.90;;;;;;5038446;28;19917;-72
2022/12/23 03:06:30;;;;;;;;;;;20.10;99.90;;;;;;5040894;28;19939;-75
2022/12/23 03:08:57;;;;;;;;;;;19.80;99.90;;;;;;5045364;28;19916;-73
2022/12/23 03:11:27;;;;;;;;;;;20.20;99.90;;;;;;5043192;28;20543;-75
2022/12/23 03:14:04;;;;;;;;;;;19.90;99.90;;;;;;5052811;28;19924;-75
2022/12/23 03:16:48;;;;;;;;;;;19.80;99.90;;;;;;5038972;28;20270;-72
2022/12/23 03:19:14;;;;;;;;;;;20.00;99.90;;;;;;5036503;28;19948;-74
2022/12/23 03:22:04;;;;;;;;;;;19.80;99.90;;;;;;5032183;28;20272;-74
2022/12/23 03:24:39;;;;;;;;;;;19.80;99.90;;;;;;5042154;28;19913;-73
2022/12/23 03:27:05;;;;;;;;;;;19.90;99.90;;;;;;5029945;28;19913;-74
2022/12/23 03:29:30;;;;;;;;;;;19.80;99.90;;;;;;5036935;28;19917;-75
2022/12/23 03:31:57;;;;;;;;;;;20.20;99.90;;;;;;5032599;28;19939;-75
2022/12/23 03:34:25;;;;;;;;;;;20.00;99.90;;;;;;5036340;28;19908;-73
2022/12/23 03:36:52;;;;;;;;;;;19.60;99.90;;;;;;5039628;28;19919;-75
2022/12/23 03:39:19;;;;;;;;;;;19.70;99.90;;;;;;5038761;28;19916;-74
2022/12/23 03:41:57;;;;;;;;;;;19.80;99.90;;;;;;5038015;28;19929;-74
2022/12/23 03:44:31;;;;;;;;;;;20.10;99.90;;;;;;5038357;28;20292;-74
2022/12/23 03:47:02;;;;;;;;;;;20.00;99.90;;;;;;5040337;28;20474;-73
2022/12/23 03:49:30;;;;;;;;;;;20.10;99.90;;;;;;5041805;28;19916;-75
2022/12/23 03:51:59;;;;;;;;;;;19.90;99.90;;;;;;5033822;28;19948;-74
2022/12/23 03:54:35;;;;;;;;;;;19.90;99.90;;;;;;5034274;28;19928;-73
2022/12/23 03:57:02;;;;;;;;;;;19.70;99.90;;;;;;5029014;28;19917;-72
2022/12/23 03:59:32;;;;;;;;;;;19.50;99.90;;;;;;5036697;28;19920;-74
2022/12/23 04:02:09;;;;;;;;;;;19.60;99.90;;;;;;5040323;28;19909;-74
2022/12/23 04:04:47;;;;;;;;;;;19.40;99.90;;;;;;5037235;28;19982;-73
2022/12/23 04:07:32;;;;;;;;;;;19.30;99.90;;;;;;5032690;28;20267;-74
2022/12/23 04:09:57;;;;;;;;;;;19.30;99.90;;;;;;5038364;28;20008;-75
2022/12/23 04:12:24;;;;;;;;;;;19.20;99.90;;;;;;5044628;28;20009;-73
2022/12/23 04:14:50;;;;;;;;;;;19.20;99.90;;;;;;5031536;28;19905;-76
2022/12/23 04:17:16;;;;;;;;;;;19.30;99.90;;;;;;5036728;28;19921;-74
2022/12/23 04:19:42;;;;;;;;;;;19.10;99.90;;;;;;5036791;28;20286;-74
2022/12/23 04:22:07;;;;;;;;;;;18.90;99.90;;;;;;5036227;28;19917;-74
2022/12/23 04:24:33;;;;;;;;;;;19.10;99.90;;;;;;5035046;28;19912;-74
2022/12/23 04:26:58;;;;;;;;;;;19.50;99.90;;;;;;5043348;28;19913;-74
2022/12/23 04:29:23;;;;;;;;;;;19.20;99.90;;;;;;5044339;28;19912;-75
2022/12/23 04:31:49;;;;;;;;;;;19.10;99.90;;;;;;5040203;28;19924;-76
2022/12/23 04:34:14;;;;;;;;;;;19.40;99.90;;;;;;5039094;28;20005;-75
2022/12/23 04:36:40;;;;;;;;;;;19.30;99.90;;;;;;5048696;28;19931;-75
2022/12/23 04:39:05;;;;;;;;;;;19.20;99.90;;;;;;5047260;28;19999;-75
2022/12/23 04:41:31;;;;;;;;;;;19.40;99.90;;;;;;5044347;28;19909;-74
2022/12/23 04:43:56;;;;;;;;;;;19.50;99.90;;;;;;5042230;28;19921;-72
2022/12/23 04:46:22;;;;;;;;;;;19.40;99.90;;;;;;5039447;28;19967;-76
2022/12/23 04:48:47;;;;;;;;;;;19.40;99.90;;;;;;5041316;28;20374;-74
2022/12/23 04:51:13;;;;;;;;;;;19.50;99.90;;;;;;5045228;28;20362;-75
2022/12/23 04:53:38;;;;;;;;;;;19.40;99.90;;;;;;5041686;28;20406;-74
2022/12/23 04:56:04;;;;;;;;;;;19.10;99.90;;;;;;5043840;28;19931;-76
2022/12/23 04:58:29;;;;;;;;;;;19.20;99.90;;;;;;5039757;28;19917;-72
2022/12/23 05:01:04;;;;;;;;;;;18.90;99.90;;;;;;5040691;28;20406;-74
2022/12/23 05:03:30;;;;;;;;;;;19.00;99.90;;;;;;5043051;28;20011;-72
2022/12/23 05:05:55;;;;;;;;;;;18.90;99.90;;;;;;5043946;28;19996;-73
2022/12/23 05:08:21;;;;;;;;;;;18.80;99.90;;;;;;5038382;28;19944;-74
2022/12/23 05:10:46;;;;;;;;;;;18.90;99.90;;;;;;5034856;28;19909;-71
2022/12/23 05:13:12;;;;;;;;;;;19.00;99.90;;;;;;5032848;28;20306;-74
2022/12/23 05:15:37;;;;;;;;;;;18.90;99.90;;;;;;5034524;28;19940;-74
2022/12/23 05:18:03;;;;;;;;;;;19.00;99.90;;;;;;5031791;28;19920;-74
2022/12/23 05:20:28;;;;;;;;;;;18.80;99.90;;;;;;5042227;28;20421;-74
2022/12/23 05:22:54;;;;;;;;;;;18.80;99.90;;;;;;5046531;28;20270;-73
2022/12/23 05:25:19;;;;;;;;;;;18.60;99.90;;;;;;5046597;28;19913;-74
2022/12/23 05:27:45;;;;;;;;;;;18.50;99.90;;;;;;5035235;28;19966;-74
2022/12/23 05:30:10;;;;;;;;;;;18.50;99.90;;;;;;5043446;28;19912;-71
2022/12/23 05:32:36;;;;;;;;;;;18.60;99.90;;;;;;5046577;28;19919;-75
2022/12/23 05:35:01;;;;;;;;;;;18.60;99.90;;;;;;5034701;28;19986;-74
2022/12/23 05:37:27;;;;;;;;;;;18.60;99.90;;;;;;5045535;28;19912;-74
2022/12/23 05:39:52;;;;;;;;;;;18.70;99.90;;;;;;5041299;28;19968;-75
2022/12/23 05:42:18;;;;;;;;;;;18.70;99.90;;;;;;5049157;28;20852;-74
2022/12/23 05:44:44;;;;;;;;;;;18.70;99.90;;;;;;5045344;28;19932;-74
2022/12/23 05:47:09;;;;;;;;;;;18.80;99.90;;;;;;5045358;28;20405;-74
2022/12/23 05:49:35;;;;;;;;;;;18.70;99.90;;;;;;5044593;28;19936;-74
2022/12/23 05:52:00;;;;;;;;;;;18.80;99.90;;;;;;5042666;28;19954;-72
2022/12/23 05:54:26;;;;;;;;;;;18.50;99.90;;;;;;5040076;28;19932;-73
2022/12/23 05:56:51;;;;;;;;;;;18.50;99.90;;;;;;5042115;28;19912;-74
2022/12/23 05:59:16;;;;;;;;;;;18.60;99.90;;;;;;5042589;28;19983;-72
2022/12/23 06:01:42;;;;;;;;;;;18.60;99.90;;;;;;5047335;28;20412;-75
2022/12/23 06:04:07;;;;;;;;;;;18.80;99.90;;;;;;5038876;28;20221;-74
2022/12/23 06:06:33;;;;;;;;;;;19.00;99.90;;;;;;5045732;28;19915;-74
2022/12/23 06:08:58;;;;;;;;;;;19.00;99.90;;;;;;5042802;28;20429;-74
2022/12/23 06:11:24;;;;;;;;;;;18.90;99.90;;;;;;5041695;28;19928;-74
2022/12/23 06:13:51;;;;;;;;;;;18.80;99.90;;;;;;5038437;28;19932;-74
2022/12/23 06:16:17;;;;;;;;;;;18.90;99.90;;;;;;5039525;28;19909;-72
2022/12/23 06:18:42;;;;;;;;;;;18.90;99.90;;;;;;5039672;28;19919;-73
2022/12/23 06:21:07;;;;;;;;;;;18.70;99.90;;;;;;5045011;28;19990;-73
2022/12/23 06:23:33;;;;;;;;;;;18.80;99.90;;;;;;5046983;28;19919;-72
2022/12/23 06:25:59;;;;;;;;;;;18.80;99.90;;;;;;5043036;28;19932;-73
2022/12/23 06:28:24;;;;;;;;;;;19.10;99.90;;;;;;5045268;28;19909;-74
2022/12/23 06:30:53;;;;;;;;;;;18.70;99.90;;;;;;5040052;28;19963;-73
2022/12/23 06:33:18;;;;;;;;;;;18.80;99.90;;;;;;5042947;28;19923;-74
2022/12/23 06:35:44;;;;;;;;;;;18.70;99.90;;;;;;5039260;28;20007;-74
2022/12/23 06:38:09;;;;;;;;;;;18.80;99.90;;;;;;5040473;28;19913;-75
2022/12/23 06:40:35;;;;;;;;;;;18.80;99.90;;;;;;5043845;28;19936;-74
2022/12/23 06:43:00;;;;;;;;;;;19.10;99.90;;;;;;5036805;28;19935;-74
2022/12/23 06:45:26;;;;;;;;;;;19.00;99.90;;;;;;5047517;28;20371;-74
2022/12/23 06:47:52;;;;;;;;;;;18.80;99.90;;;;;;5039275;28;19909;-74
2022/12/23 06:50:18;;;;;;;;;;;19.00;99.90;;;;;;5033817;28;19940;-75
2022/12/23 06:52:44;;;;;;;;;;;18.70;99.90;;;;;;5040835;28;19909;-74
2022/12/23 06:55:09;;;;;;;;;;;18.60;99.90;;;;;;5040246;28;19904;-72
2022/12/23 06:57:34;;;;;;;;;;;18.50;99.90;;;;;;5046029;28;19913;-74
2022/12/23 07:00:00;;;;;;;;;;;18.40;99.90;;;;;;5040837;28;20418;-74
2022/12/23 07:02:25;;;;;;;;;;;18.40;99.90;;;;;;5044676;28;19905;-74
2022/12/23 07:04:51;;;;;;;;;;;18.30;99.90;;;;;;5042810;28;20425;-75
2022/12/23 07:07:16;;;;;;;;;;;18.20;99.90;;;;;;5033929;28;19905;-74
2022/12/23 07:09:42;;;;;;;;;;;18.10;99.90;;;;;;5041086;28;19931;-73
2022/12/23 07:12:07;;;;;;;;;;;18.30;99.90;;;;;;5037005;28;19909;-73
2022/12/23 07:14:33;;;;;;;;;;;18.30;99.90;;;;;;5040932;28;19911;-73
2022/12/23 07:16:58;;;;;;;;;;;18.20;99.90;;;;;;5045911;28;19959;-72
2022/12/23 07:19:24;;;;;;;;;;;18.40;99.90;;;;;;5031112;28;20223;-73
2022/12/23 07:21:49;;;;;;;;;;;18.30;99.90;;;;;;5043678;28;19916;-75
2022/12/23 07:24:15;;;;;;;;;;;18.30;99.90;;;;;;5033891;28;19905;-72
2022/12/23 07:26:41;;;;;;;;;;;18.20;99.90;;;;;;5042684;28;19912;-73
2022/12/23 07:29:06;;;;;;;;;;;18.30;99.90;;;;;;5041545;28;19988;-74
2022/12/23 07:31:32;;;;;;;;;;;18.30;99.90;;;;;;5042275;28;20562;-74
2022/12/23 07:33:57;;;;;;;;;;;18.30;99.90;;;;;;5044437;28;19909;-75
2022/12/23 07:36:23;;;;;;;;;;;18.30;99.90;;;;;;5045773;28;19980;-76
2022/12/23 07:38:50;;;;;;;;;;;18.10;99.90;;;;;;5034992;28;19975;-74
2022/12/23 07:41:16;;;;;;;;;;;18.20;99.90;;;;;;5039323;28;19905;-74
2022/12/23 07:43:41;;;;;;;;;;;18.30;99.90;;;;;;5032547;28;19923;-74
2022/12/23 07:46:07;;;;;;;;;;;18.40;99.90;;;;;;5043214;28;19905;-73
2022/12/23 07:48:33;;;;;;;;;;;18.30;99.90;;;;;;5036491;28;19917;-73
2022/12/23 07:50:59;;;;;;;;;;;18.30;99.90;;;;;;5035846;28;19913;-72
2022/12/23 07:53:25;;;;;;;;;;;18.10;99.90;;;;;;5039354;28;19909;-74
2022/12/23 07:55:51;;;;;;;;;;;18.30;99.90;;;;;;5043190;28;19919;-73
2022/12/23 07:58:17;;;;;;;;;;;17.90;99.90;;;;;;5031899;28;19952;-73
2022/12/23 08:00:42;;;;;;;;;;;18.00;99.90;;;;;;5038980;28;19909;-73
2022/12/23 08:03:09;;;;;;;;;;;18.20;99.90;;;;;;5036870;28;19977;-72
2022/12/23 08:05:35;;;;;;;;;;;18.10;99.90;;;;;;5037542;28;19967;-73
2022/12/23 08:08:00;;;;;;;;;;;18.20;99.90;;;;;;5048998;28;19936;-73
2022/12/23 08:10:26;;;;;;;;;;;18.20;99.90;;;;;;5049549;28;19912;-73
2022/12/23 08:12:51;;;;;;;;;;;18.00;99.90;;;;;;5051772;28;19908;-74
2022/12/23 08:15:17;;;;;;;;;;;18.00;99.90;;;;;;5049064;28;19909;-73
2022/12/23 08:17:42;;;;;;;;;;;18.10;99.90;;;;;;5046852;28;19915;-74
2022/12/23 08:20:08;;;;;;;;;;;18.20;99.90;;;;;;5038751;28;20724;-74
2022/12/23 08:22:33;;;;;;;;;;;18.30;99.90;;;;;;5035759;28;19972;-74
2022/12/23 08:24:59;;;;;;;;;;;18.10;99.90;;;;;;5037267;28;19912;-72
2022/12/23 08:27:25;;;;;;;;;;;18.40;99.90;;;;;;5047613;28;19909;-74
2022/12/23 08:29:50;;;;;;;;;;;18.20;99.90;;;;;;5039894;28;19905;-73
2022/12/23 08:32:16;;;;;;;;;;;18.40;99.90;;;;;;5037800;28;20685;-73
2022/12/23 08:34:41;;;;;;;;;;;18.30;99.90;;;;;;5038603;28;20293;-74
2022/12/23 08:37:06;;;;;;;;;;;18.40;99.90;;;;;;5036706;28;19968;-73
2022/12/23 08:39:32;;;;;;;;;;;18.50;99.90;;;;;;5042350;28;20492;-74
2022/12/23 08:41:57;;;;;;;;;;;18.30;99.90;;;;;;5039701;28;19905;-73
2022/12/23 08:44:26;;;;;;;;;;;18.20;99.90;;;;;;5038390;28;19920;-74
2022/12/23 08:46:52;;;;;;;;;;;18.30;99.90;;;;;;5037534;28;20042;-74
2022/12/23 08:49:18;;;;;;;;;;;18.20;99.90;;;;;;5039799;28;19935;-73
2022/12/23 08:51:44;;;;;;;;;;;18.10;99.90;;;;;;5030978;28;19909;-75
2022/12/23 08:54:09;;;;;;;;;;;18.20;99.90;;;;;;5038191;28;19905;-75
2022/12/23 08:56:38;;;;;;;;;;;18.30;99.90;;;;;;5036268;28;19909;-74
2022/12/23 08:59:03;;;;;;;;;;;18.40;99.90;;;;;;5048619;28;20497;-73
2022/12/23 09:01:30;;;;;;;;;;;18.20;99.90;;;;;;5046504;28;19909;-73
2022/12/23 09:03:55;;;;;;;;;;;18.10;99.90;;;;;;5027892;28;19963;-74
2022/12/23 09:06:22;;;;;;;;;;;17.90;99.90;;;;;;5031392;28;20215;-73
2022/12/23 09:08:47;;;;;;;;;;;18.10;99.90;;;;;;5032334;28;19988;-74
2022/12/23 09:11:15;;;;;;;;;;;18.00;99.90;;;;;;5034846;28;20008;-74
2022/12/23 09:13:40;;;;;;;;;;;18.20;99.90;;;;;;5032760;28;19920;-74
2022/12/23 09:16:06;;;;;;;;;;;18.20;99.90;;;;;;5032154;28;19905;-74
2022/12/23 09:18:32;;;;;;;;;;;18.30;99.90;;;;;;5038134;28;19921;-74
2022/12/23 09:20:58;;;;;;;;;;;18.20;99.90;;;;;;5035266;28;20387;-72
2022/12/23 09:23:24;;;;;;;;;;;18.40;99.90;;;;;;5029586;28;19905;-72
2022/12/23 09:25:49;;;;;;;;;;;18.20;99.90;;;;;;5037347;28;19916;-75
2022/12/23 09:28:15;;;;;;;;;;;18.20;99.90;;;;;;5042692;28;19909;-75
2022/12/23 09:30:40;;;;;;;;;;;18.40;99.90;;;;;;5043153;28;20351;-73
2022/12/23 09:33:05;;;;;;;;;;;18.30;99.90;;;;;;5041200;28;19905;-72
2022/12/23 09:35:32;;;;;;;;;;;18.40;99.90;;;;;;5032755;28;19960;-73
2022/12/23 09:37:57;;;;;;;;;;;18.20;99.90;;;;;;5044521;28;19932;-73
2022/12/23 09:40:23;;;;;;;;;;;18.40;99.90;;;;;;5038082;28;20351;-73
2022/12/23 09:42:57;;;;;;;;;;;18.50;99.90;;;;;;5032440;28;20497;-73
2022/12/23 09:45:41;;;;;;;;;;;18.20;99.90;;;;;;5030908;28;19956;-75
2022/12/23 09:48:12;;;;;;;;;;;18.10;99.90;;;;;;5031443;28;20342;-75
2022/12/23 09:50:38;;;;;;;;;;;18.20;99.90;;;;;;5030096;28;19912;-74
2022/12/23 09:53:06;;;;;;;;;;;18.20;99.90;;;;;;5032570;28;19945;-76
2022/12/23 09:55:51;;;;;;;;;;;18.20;99.90;;;;;;5032429;28;19910;-74
2022/12/23 09:58:26;;;;;;;;;;;18.10;99.90;;;;;;5027975;28;19917;-75
2022/12/23 10:00:59;;;;;;;;;;;18.10;99.90;;;;;;5038417;28;19905;-74
2022/12/23 10:03:31;;;;;;;;;;;18.00;99.90;;;;;;5040740;28;19923;-75
2022/12/23 10:06:03;;;;;;;;;;;18.00;99.90;;;;;;5046325;28;20193;-73
2022/12/23 10:08:31;;;;;;;;;;;17.90;99.90;;;;;;5050638;28;19944;-72
2022/12/23 10:11:15;;;;;;;;;;;17.90;99.90;;;;;;5049452;28;20006;-76
2022/12/23 10:13:47;;;;;;;;;;;18.10;99.90;;;;;;5039065;28;19991;-73
2022/12/23 10:16:15;;;;;;;;;;;18.20;99.90;;;;;;5044487;28;19912;-74
2022/12/23 10:18:46;;;;;;;;;;;18.20;99.90;;;;;;5053804;28;19928;-74
2022/12/23 10:21:23;;;;;;;;;;;18.30;99.90;;;;;;5054063;28;20588;-74
2022/12/23 10:23:50;;;;;;;;;;;17.90;99.90;;;;;;5049210;28;19917;-73
2022/12/23 10:26:20;;;;;;;;;;;18.00;99.90;;;;;;5051548;28;19905;-74
2022/12/23 10:28:46;;;;;;;;;;;17.80;99.90;;;;;;5058138;28;20030;-75
2022/12/23 10:31:15;;;;;;;;;;;17.70;99.90;;;;;;5054382;28;19964;-72
2022/12/23 10:33:46;;;;;;;;;;;17.80;99.90;;;;;;5058789;28;19913;-74
2022/12/23 10:36:11;;;;;;;;;;;17.70;99.90;;;;;;5063087;28;19905;-73
2022/12/23 10:38:57;;;;;;;;;;;18.00;99.90;;;;;;5057300;28;19914;-75
2022/12/23 10:41:33;;;;;;;;;;;17.80;99.90;;;;;;5067470;28;19896;-74
2022/12/23 10:44:18;;;;;;;;;;;18.00;99.90;;;;;;5063537;28;19918;-74
2022/12/23 10:47:00;;;;;;;;;;;18.00;99.90;;;;;;5069138;28;19968;-74
2022/12/23 10:49:25;;;;;;;;;;;18.20;99.90;;;;;;5067698;28;19912;-74
2022/12/23 10:51:53;;;;;;;;;;;18.10;99.90;;;;;;5067993;28;19908;-73
2022/12/23 10:54:25;;;;;;;;;;;18.10;99.90;;;;;;5062644;28;20211;-73
2022/12/23 10:56:51;;;;;;;;;;;18.10;99.90;;;;;;5062388;28;20359;-73
2022/12/23 10:59:20;;;;;;;;;;;18.30;99.90;;;;;;5062364;28;19972;-71
2022/12/23 11:01:51;;;;;;;;;;;18.10;99.90;;;;;;5051384;28;19905;-74
2022/12/23 11:04:18;;;;;;;;;;;18.10;99.90;;;;;;5041037;28;19956;-75
2022/12/23 11:06:49;;;;;;;;;;;18.30;99.90;;;;;;5038690;28;19912;-74
2022/12/23 11:09:20;;;;;;;;;;;18.40;99.90;;;;;;5047313;28;19905;-74
2022/12/23 11:11:52;;;;;;;;;;;18.40;99.90;;;;;;5041682;28;19912;-74
2022/12/23 11:14:29;;;;;;;;;;;18.30;99.90;;;;;;5035742;28;20469;-74
2022/12/23 11:16:54;;;;;;;;;;;18.40;99.90;;;;;;5043951;28;19916;-74
2022/12/23 11:19:20;;;;;;;;;;;18.40;99.90;;;;;;5039229;28;19935;-75
2022/12/23 11:21:54;;;;;;;;;;;18.30;99.90;;;;;;5047686;28;19905;-74
2022/12/23 11:24:21;;;;;;;;;;;18.10;99.90;;;;;;5046690;28;20336;-74
2022/12/23 11:26:47;;;;;;;;;;;18.20;99.90;;;;;;5046905;28;20547;-74
2022/12/23 11:29:20;;;;;;;;;;;18.10;99.90;;;;;;5037549;28;20481;-73
2022/12/23 11:31:46;;;;;;;;;;;18.30;99.90;;;;;;5047037;28;19927;-75
2022/12/23 11:34:19;;;;;;;;;;;18.20;99.90;;;;;;5040902;28;19904;-74
2022/12/23 11:36:55;;;;;;;;;;;18.00;99.90;;;;;;5044480;28;19917;-73
2022/12/23 11:39:24;;;;;;;;;;;18.10;99.90;;;;;;5043434;28;19905;-75
2022/12/23 11:41:51;;;;;;;;;;;17.90;99.90;;;;;;5039622;28;19913;-74
2022/12/23 11:44:16;;;;;;;;;;;18.00;99.90;;;;;;5042263;28;19916;-74
2022/12/23 11:46:42;;;;;;;;;;;18.00;99.90;;;;;;5041627;28;19906;-73
2022/12/23 11:49:17;;;;;;;;;;;18.00;99.90;;;;;;5037039;28;20430;-74
2022/12/23 11:52:01;;;;;;;;;;;17.90;99.90;;;;;;5052729;28;19912;-75
2022/12/23 11:54:27;;;;;;;;;;;17.90;99.90;;;;;;5038099;28;19916;-73
2022/12/23 11:56:53;;;;;;;;;;;17.90;99.90;;;;;;5048521;28;20350;-74
2022/12/23 11:59:27;;;;;;;;;;;18.00;99.90;;;;;;5050077;28;19954;-74
2022/12/23 12:01:53;;;;;;;;;;;18.10;99.90;;;;;;5044006;28;19905;-72
2022/12/23 12:04:20;;;;;;;;;;;18.10;99.90;;;;;;5036818;28;20294;-73
2022/12/23 12:06:47;;;;;;;;;;;18.00;99.90;;;;;;5043830;28;19905;-73
2022/12/23 12:09:13;;;;;;;;;;;18.00;99.90;;;;;;5036002;28;19905;-74
2022/12/23 12:11:43;;;;;;;;;;;17.90;99.90;;;;;;5041948;28;19916;-73
2022/12/23 12:14:16;;;;;;;;;;;18.10;99.90;;;;;;5036294;28;19904;-72
2022/12/23 12:16:59;;;;;;;;;;;18.20;99.90;;;;;;5039106;28;19905;-74
2022/12/23 12:19:24;;;;;;;;;;;18.10;99.90;;;;;;5044566;28;19919;-74
2022/12/23 12:21:52;;;;;;;;;;;18.20;99.90;;;;;;5037725;28;19905;-72
2022/12/23 12:24:17;;;;;;;;;;;18.30;99.90;;;;;;5036360;28;20028;-72
2022/12/23 12:26:43;;;;;;;;;;;18.10;99.90;;;;;;5039341;28;20043;-74
2022/12/23 12:29:14;;;;;;;;;;;18.30;99.90;;;;;;5044154;28;19992;-73
2022/12/23 12:31:42;;;;;;;;;;;18.20;99.90;;;;;;5043553;28;19935;-74
2022/12/23 12:34:23;;;;;;;;;;;18.20;99.90;;;;;;5041468;28;19909;-75
2022/12/23 12:36:48;;;;;;;;;;;18.30;99.90;;;;;;5038371;28;19928;-75
2022/12/23 12:39:16;;;;;;;;;;;18.40;99.90;;;;;;5037404;28;19905;-74
2022/12/23 12:41:50;;;;;;;;;;;18.50;99.90;;;;;;5039061;28;19909;-74
2022/12/23 12:44:36;;;;;;;;;;;18.60;99.90;;;;;;5031856;28;20565;-73
2022/12/23 12:47:31;;;;;;;;;;;18.70;99.90;;;;;;5038502;28;19909;-72
2022/12/23 12:49:58;;;;;;;;;;;18.80;99.90;;;;;;4987481;28;19922;-74
2022/12/23 12:52:25;;;;;;;;;;;18.70;99.90;;;;;;5036961;28;19914;-74
2022/12/23 12:54:59;;;;;;;;;;;18.80;99.90;;;;;;5037953;28;19905;-74
2022/12/23 12:57:25;;;;;;;;;;;18.80;99.90;;;;;;5038938;28;19909;-74
2022/12/23 12:59:53;;;;;;;;;;;18.90;99.90;;;;;;5038114;28;19951;-74
2022/12/23 13:02:35;;;;;;;;;;;19.00;99.90;;;;;;5032744;28;20481;-75
2022/12/23 13:05:01;;;;;;;;;;;19.10;99.90;;;;;;5031738;28;19916;-73
2022/12/23 13:07:44;;;;;;;;;;;19.20;99.90;;;;;;5032360;28;19904;-74
2022/12/23 13:10:20;;;;;;;;;;;19.40;99.90;;;;;;5044955;28;19916;-74
2022/12/23 13:12:49;;;;;;;;;;;19.40;99.90;;;;;;5043755;28;19908;-73
2022/12/23 13:15:26;;;;;;;;;;;19.60;99.90;;;;;;5031499;28;20291;-75
2022/12/23 13:18:06;;;;;;;;;;;19.50;99.90;;;;;;5032142;28;19920;-73
2022/12/23 13:20:35;;;;;;;;;;;19.50;99.90;;;;;;5041142;28;19904;-75
2022/12/23 13:23:20;;;;;;;;;;;19.60;99.90;;;;;;5038216;28;20579;-72
2022/12/23 13:25:50;;;;;;;;;;;19.60;99.90;;;;;;5033146;28;19912;-73
2022/12/23 13:28:21;;;;;;;;;;;19.70;99.90;;;;;;5037942;28;19909;-73
2022/12/23 13:30:54;;;;;;;;;;;19.70;99.90;;;;;;5052335;28;19951;-74
2022/12/23 13:33:25;;;;;;;;;;;19.70;99.90;;;;;;5041561;28;20228;-75
2022/12/23 13:36:06;;;;;;;;;;;19.60;99.90;;;;;;5041857;28;19909;-75
2022/12/23 13:38:32;;;;;;;;;;;19.60;99.90;;;;;;5045717;28;19909;-76
2022/12/23 13:41:16;;;;;;;;;;;19.60;99.90;;;;;;5034954;28;19905;-72
2022/12/23 13:43:43;;;;;;;;;;;19.50;99.90;;;;;;5039574;28;20460;-74
2022/12/23 13:46:22;;;;;;;;;;;19.50;99.90;;;;;;5057651;28;19905;-75
2022/12/23 13:49:06;;;;;;;;;;;19.50;99.90;;;;;;5042156;28;19909;-74
2022/12/23 13:51:36;;;;;;;;;;;19.40;99.90;;;;;;5051722;28;19981;-74
2022/12/23 13:54:20;;;;;;;;;;;19.50;99.90;;;;;;5048854;28;20550;-73
2022/12/23 13:56:55;;;;;;;;;;;19.60;99.90;;;;;;5049072;28;20006;-74
2022/12/23 13:59:21;;;;;;;;;;;19.60;99.90;;;;;;5049826;28;19908;-74
2022/12/23 14:01:47;;;;;;;;;;;19.70;99.90;;;;;;5045713;28;19919;-73
2022/12/23 14:04:31;;;;;;;;;;;19.60;99.90;;;;;;5049306;28;19917;-73
2022/12/23 14:07:19;;;;;;;;;;;19.70;99.90;;;;;;5048071;28;19909;-73
2022/12/23 14:09:49;;;;;;;;;;;19.70;99.90;;;;;;5048537;28;19911;-74
2022/12/23 14:12:18;;;;;;;;;;;19.70;99.90;;;;;;5052734;28;19905;-73
2022/12/23 14:14:50;;;;;;;;;;;19.60;99.90;;;;;;5054989;28;19968;-74
2022/12/23 14:17:23;;;;;;;;;;;19.60;99.90;;;;;;5055059;28;19909;-73
2022/12/23 14:19:54;;;;;;;;;;;19.70;99.90;;;;;;5052409;28;19917;-74
2022/12/23 14:22:19;;;;;;;;;;;19.60;99.90;;;;;;5058691;28;19940;-73
2022/12/23 14:25:04;;;;;;;;;;;19.80;99.90;;;;;;5067568;28;19916;-73
2022/12/23 14:27:35;;;;;;;;;;;19.70;99.90;;;;;;5059160;28;19944;-74
2022/12/23 14:30:15;;;;;;;;;;;19.70;99.90;;;;;;5070723;28;19909;-72
2022/12/23 14:33:07;;;;;;;;;;;19.90;99.90;;;;;;5052414;28;19905;-74
2022/12/23 14:35:32;;;;;;;;;;;19.80;99.90;;;;;;5036088;28;19904;-72
2022/12/23 14:38:13;;;;;;;;;;;19.80;99.90;;;;;;5039821;28;19916;-72
2022/12/23 14:40:41;;;;;;;;;;;19.70;99.90;;;;;;5048444;28;19926;-74
2022/12/23 14:43:24;;;;;;;;;;;19.90;99.90;;;;;;5042784;28;19909;-77
2022/12/23 14:46:00;;;;;;;;;;;20.00;99.90;;;;;;5041268;28;19913;-74
2022/12/23 14:48:34;;;;;;;;;;;19.80;99.90;;;;;;5042200;28;19904;-74
2022/12/23 14:51:02;;;;;;;;;;;19.70;99.90;;;;;;5044729;28;19944;-75
2022/12/23 14:53:29;;;;;;;;;;;19.60;99.90;;;;;;5038811;28;19909;-74